Time;durP1;ratioP1;P1;durP2;ratioP2;P2;SDS_P1;SDS_P2;PMS_P1;PMS_P2;Temp;Humidity;BMP_temperature;BMP_pressure;BME280_temperature;BME280_humidity;BME280_pressure;Samples;Min_cycle;Max_cycle;Signal;HPM_P1;HPM_P2
2022/05/10 00:00:57;;;;;;;12.45;5.40;;;20.20;61.90;;;;;;5013877;28;20034;-67
2022/05/10 00:03:30;;;;;;;10.98;4.80;;;21.70;67.90;;;;;;5014503;28;20496;-67
2022/05/10 00:05:56;;;;;;;11.68;5.43;;;21.10;75.50;;;;;;5016579;28;20029;-67
2022/05/10 00:08:22;;;;;;;9.90;5.25;;;21.40;68.10;;;;;;5023120;28;20084;-67
2022/05/10 00:10:48;;;;;;;11.52;5.20;;;20.20;75.30;;;;;;5011066;28;20041;-67
2022/05/10 00:13:15;;;;;;;8.05;4.60;;;19.70;74.00;;;;;;5013288;28;20070;-67
2022/05/10 00:15:42;;;;;;;8.73;4.90;;;19.80;66.70;;;;;;5012968;28;20046;-67
2022/05/10 00:18:12;;;;;;;7.28;4.78;;;20.40;76.70;;;;;;5008967;28;20034;-67
2022/05/10 00:20:38;;;;;;;8.90;4.70;;;17.80;68.90;;;;;;5012942;28;20028;-67
2022/05/10 00:23:04;;;;;;;7.53;4.63;;;21.10;75.90;;;;;;4993691;28;20065;-67
2022/05/10 00:25:30;;;;;;;7.53;4.50;;;18.30;68.60;;;;;;5010949;28;20111;-67
2022/05/10 00:27:57;;;;;;;10.13;4.90;;;20.30;69.50;;;;;;5008930;28;20037;-67
2022/05/10 00:30:23;;;;;;;8.90;4.40;;;21.20;76.50;;;;;;5011670;28;20437;-67
2022/05/10 00:32:50;;;;;;;8.50;5.28;;;19.70;62.00;;;;;;5010008;28;20025;-67
2022/05/10 00:35:19;;;;;;;8.50;4.97;;;19.70;68.90;;;;;;5014085;28;20409;-67
2022/05/10 00:37:48;;;;;;;9.63;4.55;;;20.10;77.30;;;;;;5011576;28;20026;-67
2022/05/10 00:40:16;;;;;;;9.23;4.68;;;21.10;72.80;;;;;;5010351;28;20042;-67
2022/05/10 00:42:57;;;;;;;9.77;4.80;;;20.10;69.40;;;;;;5017775;28;20028;-67
2022/05/10 00:45:25;;;;;;;;;;;19.60;62.80;;;;;;5015437;28;20022;-67
2022/05/10 00:48:11;;;;;;;8.32;5.07;;;19.60;69.30;;;;;;5011403;28;19917;-67
2022/05/10 00:50:49;;;;;;;9.45;4.78;;;19.50;63.30;;;;;;5017115;28;20100;-67
2022/05/10 00:53:27;;;;;;;12.25;4.90;;;20.20;69.40;;;;;;5005503;28;20033;-67
2022/05/10 00:56:07;;;;;;;11.00;4.95;;;19.70;77.10;;;;;;5009130;28;20129;-67
2022/05/10 00:58:43;;;;;;;;;;;19.40;63.90;;;;;;5006921;28;20107;-67
2022/05/10 01:01:14;;;;;;;7.25;4.88;;;20.40;69.70;;;;;;5010409;28;19921;-67
2022/05/10 01:04:05;;;;;;;8.38;4.60;;;19.90;75.20;;;;;;5010514;28;20044;-67
2022/05/10 01:06:38;;;;;;;8.60;4.75;;;20.10;77.10;;;;;;5004571;28;20084;-67
2022/05/10 01:09:17;;;;;;;7.75;4.60;;;20.60;74.30;;;;;;5009041;28;20072;-66
2022/05/10 01:11:50;;;;;;;7.20;4.88;;;20.10;63.90;;;;;;5008620;28;20034;-67
2022/05/10 01:14:25;;;;;;;8.07;4.95;;;19.20;63.90;;;;;;5022423;28;20018;-66
2022/05/10 01:16:50;;;;;;;7.63;4.63;;;20.00;66.70;;;;;;5011950;28;20765;-66
2022/05/10 01:19:16;;;;;;;9.13;4.95;;;20.10;67.00;;;;;;5018966;28;20021;-66
2022/05/10 01:21:55;;;;;;;9.15;5.30;;;18.70;66.20;;;;;;5016184;28;20029;-66
2022/05/10 01:24:33;;;;;;;8.73;5.07;;;18.80;66.90;;;;;;5003617;28;20484;-66
2022/05/10 01:27:23;;;;;;;9.50;5.22;;;19.40;67.50;;;;;;5003798;28;20117;-66
2022/05/10 01:29:56;;;;;;;9.45;5.40;;;19.10;65.20;;;;;;4999310;28;20053;-66
2022/05/10 01:35:16;;;;;;;9.90;5.18;;;19.00;65.00;;;;;;5007491;28;20571;-66
2022/05/10 01:37:47;;;;;;;8.18;5.13;;;17.10;74.60;;;;;;5021077;28;20043;-67
2022/05/10 01:40:37;;;;;;;8.88;5.20;;;19.40;82.10;;;;;;5013147;28;20088;-67
2022/05/10 01:43:13;;;;;;;7.95;5.28;;;19.70;79.90;;;;;;5011306;28;20037;-67
2022/05/10 01:45:44;;;;;;;7.88;5.22;;;18.60;82.60;;;;;;5007230;28;20029;-66
2022/05/10 01:48:17;;;;;;;8.35;5.50;;;18.90;66.20;;;;;;5011766;28;20048;-67
2022/05/10 01:50:48;;;;;;;12.25;5.07;;;19.40;83.00;;;;;;5010840;28;20041;-66
2022/05/10 01:53:25;;;;;;;7.93;5.28;;;20.30;85.00;;;;;;5011495;28;20041;-67
2022/05/10 01:55:53;;;;;;;8.43;5.45;;;19.30;84.50;;;;;;5008289;28;20080;-67
2022/05/10 01:58:28;;;;;;;8.57;5.35;;;20.30;85.30;;;;;;5009423;28;20025;-67
2022/05/10 02:01:34;;;;;;;8.75;5.35;;;19.40;85.30;;;;;;5016359;28;20408;-66
2022/05/10 02:04:00;;;;;;;11.82;5.07;;;;;;;;;;4989844;28;20045;-67
2022/05/10 02:06:30;;;;;;;9.88;5.57;;;18.70;70.10;;;;;;4989601;28;20034;-67
2022/05/10 02:08:56;;;;;;;19.85;5.20;;;;;;;;;;4996282;28;20092;-67
2022/05/10 02:11:23;;;;;;;12.15;5.03;;;18.80;65.20;;;;;;4990632;28;20027;-66
2022/05/10 02:14:10;;;;;;;11.90;5.35;;;19.30;71.90;;;;;;4991886;28;20080;-67
2022/05/10 02:16:36;;;;;;;14.10;5.63;;;;;;;;;;5007113;28;20080;-67
2022/05/10 02:19:07;;;;;;;13.27;4.95;;;20.00;87.50;;;;;;4993604;28;20030;-67
2022/05/10 02:21:44;;;;;;;7.10;4.93;;;18.70;65.10;;;;;;4993755;28;20530;-67
2022/05/10 02:24:16;;;;;;;11.73;5.65;;;19.50;85.80;;;;;;4988927;28;20061;-66
2022/05/10 02:27:13;;;;;;;8.40;5.07;;;18.40;65.10;;;;;;4993725;28;20169;-67
2022/05/10 02:29:54;;;;;;;13.77;5.30;;;19.80;77.90;;;;;;4993953;28;20061;-67
2022/05/10 02:35:16;;;;;;;9.00;4.90;;;19.90;82.80;;;;;;4995867;28;20582;-67
2022/05/10 02:37:42;;;;;;;10.60;5.07;;;19.10;77.70;;;;;;5028073;28;20022;-67
2022/05/10 02:40:08;;;;;;;8.52;5.10;;;18.50;84.40;;;;;;5022875;28;20029;-67
2022/05/10 02:42:35;;;;;;;10.27;5.18;;;18.40;64.90;;;;;;5018552;28;20163;-67
2022/05/10 02:45:02;;;;;;;8.10;5.05;;;18.30;72.00;;;;;;5019639;28;20104;-68
2022/05/10 02:47:29;;;;;;;8.45;5.05;;;19.10;84.20;;;;;;5013522;28;20022;-67
2022/05/10 02:49:55;;;;;;;11.18;5.25;;;18.40;71.50;;;;;;5012042;28;20057;-68
2022/05/10 02:52:21;;;;;;;9.75;5.35;;;18.30;65.40;;;;;;5017031;28;20033;-68
2022/05/10 02:54:46;;;;;;;12.55;5.95;;;15.80;71.30;;;;;;5010706;28;20030;-68
2022/05/10 02:57:12;;;;;;;10.30;5.80;;;19.10;67.40;;;;;;5010229;28;20022;-68
2022/05/10 02:59:39;;;;;;;9.13;5.55;;;18.20;86.90;;;;;;5009949;28;20037;-68
2022/05/10 03:02:23;;;;;;;8.45;5.90;;;18.20;65.50;;;;;;5009728;28;20144;-68
2022/05/10 03:04:56;;;;;;;8.80;5.80;;;18.60;71.20;;;;;;5016132;28;20097;-67
2022/05/10 03:07:22;;;;;;;8.57;6.15;;;18.00;72.80;;;;;;5020927;28;20117;-67
2022/05/10 03:09:48;;;;;;;10.20;5.97;;;18.00;86.80;;;;;;5018471;28;20041;-67
2022/05/10 03:12:14;;;;;;;14.55;6.28;;;19.70;72.00;;;;;;5011085;28;20033;-67
2022/05/10 03:14:40;;;;;;;12.48;5.60;;;18.00;71.70;;;;;;5010318;28;20054;-67
2022/05/10 03:17:05;;;;;;;7.63;5.40;;;19.60;84.00;;;;;;5017402;28;20040;-67
2022/05/10 03:19:32;;;;;;;8.35;5.63;;;18.10;85.50;;;;;;5021771;28;20072;-67
2022/05/10 03:21:58;;;;;;;8.77;5.18;;;19.50;86.30;;;;;;5019447;28;20026;-67
2022/05/10 03:24:23;;;;;;;8.65;5.00;;;19.50;85.60;;;;;;5015034;28;20033;-67
2022/05/10 03:26:52;;;;;;;11.30;5.43;;;15.70;78.80;;;;;;5009925;28;20018;-67
2022/05/10 03:29:19;;;;;;;9.85;5.38;;;19.00;76.20;;;;;;5009519;28;20030;-67
2022/05/10 03:31:45;;;;;;;8.77;5.07;;;;;;;;;;5010137;28;20099;-67
2022/05/10 03:36:56;;;;;;;8.23;5.38;;;17.50;70.00;;;;;;5014737;28;20048;-67
2022/05/10 03:39:22;;;;;;;9.85;5.80;;;;;;;;;;5019898;28;20033;-67
2022/05/10 03:41:48;;;;;;;9.45;6.20;;;18.00;69.20;;;;;;5020875;28;20026;-67
2022/05/10 03:44:14;;;;;;;7.60;5.90;;;18.30;69.50;;;;;;5024161;28;20096;-67
2022/05/10 03:46:39;;;;;;;8.50;5.63;;;18.30;67.10;;;;;;5018219;28;20455;-67
2022/05/10 03:49:05;;;;;;;9.57;5.30;;;17.60;70.10;;;;;;5011055;28;20148;-67
2022/05/10 03:51:31;;;;;;;9.63;5.32;;;19.30;69.70;;;;;;5013877;28;20018;-67
2022/05/10 03:53:58;;;;;;;15.15;5.70;;;17.50;69.60;;;;;;5011152;28;20038;-67
2022/05/10 03:56:24;;;;;;;10.43;5.53;;;18.50;66.70;;;;;;5009499;28;20084;-67
2022/05/10 03:58:50;;;;;;;12.35;5.40;;;18.90;72.70;;;;;;5009659;28;20080;-67
2022/05/10 04:01:20;;;;;;;7.57;5.53;;;20.00;72.40;;;;;;5012377;28;20042;-67
2022/05/10 04:03:46;;;;;;;10.93;5.90;;;17.70;66.10;;;;;;5009761;28;20581;-67
2022/05/10 04:06:11;;;;;;;8.55;5.95;;;18.50;70.50;;;;;;5012638;28;20096;-67
2022/05/10 04:08:38;;;;;;;8.40;5.97;;;18.40;74.70;;;;;;5017804;28;20105;-67
2022/05/10 04:11:05;;;;;;;8.82;5.55;;;17.50;65.50;;;;;;5025386;28;20057;-67
2022/05/10 04:13:32;;;;;;;8.52;5.43;;;17.90;75.60;;;;;;5018307;28;20018;-67
2022/05/10 04:15:58;;;;;;;9.43;5.85;;;17.50;65.80;;;;;;5019902;28;20536;-67
2022/05/10 04:18:24;;;;;;;7.65;5.30;;;18.50;72.80;;;;;;5020625;28;20114;-67
2022/05/10 04:20:50;;;;;;;8.48;5.47;;;;;;;;;;5020822;28;20070;-67
2022/05/10 04:23:16;;;;;;;7.82;5.63;;;19.00;76.60;;;;;;5019475;28;20029;-67
2022/05/10 04:25:42;;;;;;;10.35;5.50;;;17.80;72.50;;;;;;5009617;28;20041;-67
2022/05/10 04:28:08;;;;;;;9.77;6.13;;;;;;;;;;5009588;28;20030;-67
2022/05/10 04:30:35;;;;;;;7.88;6.13;;;;;;;;;;5005582;28;20053;-67
2022/05/10 04:33:01;;;;;;;17.13;5.80;;;;;;;;;;5006103;28;20051;-66
2022/05/10 04:35:27;;;;;;;15.93;6.03;;;;;;;;;;5014200;28;20037;-67
2022/05/10 04:37:53;;;;;;;11.82;5.45;;;17.50;65.70;;;;;;5016258;28;20022;-67
2022/05/10 04:43:05;;;;;;;12.90;6.32;;;18.50;83.90;;;;;;5015619;28;20034;-67
2022/05/10 04:45:34;;;;;;;10.90;5.80;;;16.30;78.50;;;;;;5007038;28;20033;-67
2022/05/10 04:48:00;;;;;;;9.65;5.18;;;16.80;86.20;;;;;;5015497;28;20489;-67
2022/05/10 04:50:26;;;;;;;9.95;6.10;;;17.00;72.80;;;;;;5008847;28;20183;-67
2022/05/10 04:52:52;;;;;;;14.10;6.07;;;;;;;;;;5018264;28;20018;-67
2022/05/10 04:55:20;;;;;;;9.95;6.00;;;16.70;88.30;;;;;;5004894;28;20037;-68
2022/05/10 04:57:47;;;;;;;9.52;5.85;;;16.90;86.90;;;;;;5007668;28;20055;-67
2022/05/10 05:00:14;;;;;;;9.38;5.90;;;18.30;87.00;;;;;;5005880;28;20030;-69
2022/05/10 05:02:42;;;;;;;9.73;5.68;;;;;;;;;;4999476;28;20026;-68
2022/05/10 05:05:10;;;;;;;8.18;5.97;;;16.80;87.70;;;;;;5005559;28;20075;-68
2022/05/10 05:07:36;;;;;;;110.90;9.35;;;;;;;;;;5007639;28;20338;-68
2022/05/10 05:10:03;;;;;;;69.25;8.52;;;18.00;87.80;;;;;;5012024;28;20070;-68
2022/05/10 05:12:32;;;;;;;19.65;6.20;;;15.40;68.30;;;;;;5011947;28;20049;-68
2022/05/10 05:14:58;;;;;;;10.00;6.50;;;16.10;87.80;;;;;;5005852;28;20141;-68
2022/05/10 05:17:24;;;;;;;10.65;6.38;;;;;;;;;;5007885;28;20121;-69
2022/05/10 05:19:51;;;;;;;10.95;6.30;;;17.30;89.90;;;;;;5011203;28;20054;-69
2022/05/10 05:22:17;;;;;;;30.48;7.15;;;;;;;;;;5009953;28;20481;-70
2022/05/10 05:24:43;;;;;;;12.68;6.18;;;14.30;67.40;;;;;;5012553;28;20397;-70
2022/05/10 05:27:09;;;;;;;9.75;6.47;;;;;;;;;;5012222;28;20018;-69
2022/05/10 05:29:35;;;;;;;11.50;6.53;;;;;;;;;;5017819;28;20447;-69
2022/05/10 05:32:07;;;;;;;11.45;6.70;;;16.90;66.60;;;;;;5008630;28;20029;-69
2022/05/10 05:34:35;;;;;;;9.38;6.68;;;;;;;;;;5009415;28;20477;-68
2022/05/10 05:39:51;;;;;;;13.27;6.75;;;17.20;67.30;;;;;;5008809;28;20524;-68
2022/05/10 05:42:18;;;;;;;10.95;6.80;;;;;;;;;;5008780;28;20515;-70
2022/05/10 05:44:44;;;;;;;10.73;6.70;;;18.50;82.40;;;;;;5005448;28;20485;-68
2022/05/10 05:47:10;;;;;;;18.23;8.32;;;18.40;78.90;;;;;;5002297;28;20037;-69
2022/05/10 05:49:36;;;;;;;18.52;8.43;;;18.00;91.00;;;;;;5010476;28;20037;-68
2022/05/10 05:52:09;;;;;;;17.73;8.40;;;18.00;68.50;;;;;;5010869;28;20026;-68
2022/05/10 05:54:35;;;;;;;10.23;6.82;;;17.60;91.40;;;;;;5004919;28;20752;-69
2022/05/10 05:57:01;;;;;;;13.27;6.80;;;18.80;89.80;;;;;;5005192;28;20103;-68
2022/05/10 05:59:27;;;;;;;15.20;7.25;;;17.70;67.50;;;;;;5003598;28;20072;-68
2022/05/10 06:01:54;;;;;;;12.85;8.52;;;17.00;78.20;;;;;;5010034;28;20030;-68
2022/05/10 06:04:19;;;;;;;14.82;8.75;;;17.40;90.30;;;;;;5004708;28;20523;-68
2022/05/10 06:06:45;;;;;;;21.27;8.98;;;;;;;;;;5011792;28;20033;-68
2022/05/10 06:09:11;;;;;;;16.30;8.45;;;18.60;89.90;;;;;;5007864;28;20049;-68
2022/05/10 06:11:38;;;;;;;15.50;8.27;;;18.80;74.20;;;;;;5007271;28;20022;-68
2022/05/10 06:14:04;;;;;;;21.92;8.50;;;;;;;;;;5017192;28;20042;-67
2022/05/10 06:16:31;;;;;;;20.60;8.75;;;18.40;90.10;;;;;;5011818;28;20034;-68
2022/05/10 06:18:57;;;;;;;19.65;8.48;;;19.90;73.40;;;;;;5007306;28;20038;-68
2022/05/10 06:21:23;;;;;;;16.08;8.65;;;18.40;90.10;;;;;;5007135;28;20072;-68
2022/05/10 06:23:49;;;;;;;19.15;8.70;;;20.00;90.20;;;;;;5007053;28;20033;-68
2022/05/10 06:26:15;;;;;;;17.85;8.88;;;;;;;;;;5007976;28;20068;-67
2022/05/10 06:28:42;;;;;;;14.90;8.95;;;17.50;62.10;;;;;;5013727;28;20042;-68
2022/05/10 06:31:09;;;;;;;17.52;9.60;;;19.00;86.30;;;;;;5010572;28;20038;-68
2022/05/10 06:33:36;;;;;;;17.40;9.02;;;20.20;83.50;;;;;;5011408;28;20025;-68
2022/05/10 06:36:03;;;;;;;13.48;9.88;;;21.30;81.90;;;;;;5012778;28;20096;-68
2022/05/10 06:38:29;;;;;;;17.05;10.55;;;22.50;78.70;;;;;;5014249;28;20695;-68
2022/05/10 06:41:01;;;;;;;16.05;9.82;;;24.70;76.30;;;;;;5006954;28;20042;-68
2022/05/10 06:43:28;;;;;;;18.35;10.27;;;23.20;49.50;;;;;;5017134;28;20026;-68
2022/05/10 06:45:58;;;;;;;17.63;11.07;;;22.20;71.30;;;;;;5005140;28;20120;-68
2022/05/10 06:48:24;;;;;;;18.67;11.40;;;23.70;70.80;;;;;;5007758;28;20026;-68
2022/05/10 06:50:50;;;;;;;17.95;11.50;;;24.10;53.70;;;;;;5004134;28;20528;-68
2022/05/10 06:53:16;;;;;;;20.08;10.90;;;24.40;67.00;;;;;;5007092;28;20295;-68
2022/05/10 06:55:42;;;;;;;17.33;10.88;;;;;;;;;;5016645;28;20045;-68
2022/05/10 06:58:09;;;;;;;14.10;10.25;;;24.20;56.50;;;;;;5024153;28;20485;-68
2022/05/10 07:00:38;;;;;;;16.70;10.90;;;25.70;42.40;;;;;;5011096;28;20037;-68
2022/05/10 07:03:13;;;;;;;15.25;10.43;;;27.50;42.10;;;;;;5014080;28;20025;-68
2022/05/10 07:05:44;;;;;;;13.43;10.18;;;25.80;61.60;;;;;;5025359;28;20032;-68
2022/05/10 07:08:11;;;;;;;14.43;10.38;;;26.30;40.50;;;;;;5004216;28;20022;-68
2022/05/10 07:10:38;;;;;;;14.32;10.00;;;26.60;62.00;;;;;;5012226;28;20045;-69
2022/05/10 07:13:04;;;;;;;12.52;9.25;;;;;;;;;;5012909;28;20108;-68
2022/05/10 07:15:30;;;;;;;15.30;10.15;;;26.40;62.10;;;;;;5010251;28;20052;-69
2022/05/10 07:17:56;;;;;;;13.15;8.23;;;26.40;60.90;;;;;;5010924;28;20034;-68
2022/05/10 07:20:22;;;;;;;11.85;8.38;;;;;;;;;;5012311;28;20477;-68
2022/05/10 07:22:48;;;;;;;14.13;8.40;;;25.70;60.20;;;;;;5013843;28;20064;-69
2022/05/10 07:25:18;;;;;;;14.50;8.15;;;25.70;46.00;;;;;;5021647;28;20058;-68
2022/05/10 07:27:44;;;;;;;9.50;6.55;;;26.20;52.90;;;;;;5014488;28;20026;-68
2022/05/10 07:30:12;;;;;;;10.40;6.00;;;25.30;41.20;;;;;;5011896;28;20471;-68
2022/05/10 07:32:38;;;;;;;8.65;5.47;;;26.00;46.90;;;;;;5012326;28;20033;-68
2022/05/10 07:35:04;;;;;;;11.98;5.70;;;;;;;;;;5018025;28;20120;-68
2022/05/10 07:37:33;;;;;;;8.55;5.07;;;25.60;56.40;;;;;;5022513;28;20067;-68
2022/05/10 07:40:00;;;;;;;7.35;4.07;;;25.60;43.80;;;;;;5011151;28;20026;-68
2022/05/10 07:42:26;;;;;;;8.30;4.18;;;25.90;50.20;;;;;;5017295;28;20493;-67
2022/05/10 07:44:51;;;;;;;6.90;3.47;;;26.10;47.50;;;;;;5011678;28;20040;-67
2022/05/10 07:47:18;;;;;;;9.73;4.30;;;26.50;50.80;;;;;;5013849;28;20456;-67
2022/05/10 07:49:44;;;;;;;7.47;4.28;;;26.60;49.10;;;;;;5007210;28;20065;-68
2022/05/10 07:52:09;;;;;;;8.70;4.13;;;26.70;41.20;;;;;;5012991;28;20057;-67
2022/05/10 07:54:36;;;;;;;9.07;4.18;;;26.10;36.40;;;;;;5015632;28;20151;-67
2022/05/10 07:57:03;;;;;;;12.68;3.80;;;26.30;36.60;;;;;;5012923;28;20041;-68
2022/05/10 07:59:29;;;;;;;8.55;3.88;;;26.30;36.20;;;;;;5013943;28;20767;-67
2022/05/10 08:01:55;;;;;;;11.15;3.83;;;26.50;36.30;;;;;;5011385;28;20044;-67
2022/05/10 08:04:20;;;;;;;8.38;3.67;;;26.60;36.30;;;;;;5013379;28;20026;-67
2022/05/10 08:06:46;;;;;;;5.70;3.08;;;26.70;35.60;;;;;;5014192;28;20056;-68
2022/05/10 08:09:12;;;;;;;6.57;2.97;;;26.90;34.80;;;;;;5018928;28;20396;-67
2022/05/10 08:11:39;;;;;;;9.90;3.40;;;27.00;34.20;;;;;;5010459;28;20033;-67
2022/05/10 08:14:05;;;;;;;7.35;3.08;;;27.10;33.40;;;;;;5014535;28;20029;-67
2022/05/10 08:16:32;;;;;;;10.88;3.17;;;27.30;32.70;;;;;;5012139;28;20413;-68
2022/05/10 08:18:58;;;;;;;5.25;2.42;;;27.50;31.80;;;;;;5013510;28;20374;-67
2022/05/10 08:21:25;;;;;;;8.43;2.78;;;27.90;31.30;;;;;;5014359;28;20041;-68
2022/05/10 08:23:55;;;;;;;5.90;2.60;;;28.50;30.40;;;;;;5013689;28;20074;-68
2022/05/10 08:26:22;;;;;;;8.70;2.88;;;28.90;29.60;;;;;;5010896;28;20120;-67
2022/05/10 08:28:47;;;;;;;6.95;2.60;;;29.20;29.10;;;;;;5009228;28;20516;-68
2022/05/10 08:31:13;;;;;;;4.72;2.17;;;29.50;28.90;;;;;;5011988;28;20030;-68
2022/05/10 08:33:41;;;;;;;6.65;2.22;;;29.80;28.20;;;;;;5017447;28;20460;-68
2022/05/10 08:36:11;;;;;;;9.05;2.13;;;30.20;26.80;;;;;;5021304;28;20032;-68
2022/05/10 08:38:37;;;;;;;6.30;2.40;;;30.20;26.80;;;;;;5012213;28;20071;-68
2022/05/10 08:41:30;;;;;;;9.60;2.35;;;30.30;26.60;;;;;;5018771;28;20057;-67
2022/05/10 08:43:58;;;;;;;4.97;2.45;;;29.60;26.50;;;;;;5013054;28;20405;-68
2022/05/10 08:46:46;;;;;;;5.85;2.40;;;30.40;26.80;;;;;;5014729;28;20034;-67
2022/05/10 08:49:39;;;;;;;4.90;2.20;;;30.30;26.70;;;;;;5013410;28;20037;-67
2022/05/10 08:52:08;;;;;;;6.38;2.25;;;30.40;26.10;;;;;;5003753;28;20042;-67
2022/05/10 08:54:37;;;;;;;5.60;2.00;;;30.40;25.90;;;;;;5009816;28;20026;-67
2022/05/10 08:57:24;;;;;;;5.05;2.20;;;30.40;26.20;;;;;;5012208;28;20032;-67
2022/05/10 09:00:03;;;;;;;5.90;2.30;;;30.50;27.40;;;;;;5008573;28;20719;-67
2022/05/10 09:02:35;;;;;;;5.07;2.30;;;29.70;30.50;;;;;;5009208;28;20032;-67
2022/05/10 09:05:19;;;;;;;5.60;2.10;;;30.30;29.60;;;;;;5023875;28;20030;-67
2022/05/10 09:07:52;;;;;;;6.15;2.05;;;30.10;27.50;;;;;;5016633;28;20022;-67
2022/05/10 09:10:24;;;;;;;7.65;2.30;;;30.00;30.30;;;;;;5002954;28;20878;-67
2022/05/10 09:13:13;;;;;;;8.20;2.47;;;29.30;31.90;;;;;;5012133;28;20030;-68
2022/05/10 09:15:58;;;;;;;5.75;2.42;;;29.80;28.30;;;;;;5006380;28;20595;-67
2022/05/10 09:18:25;;;;;;;5.78;2.30;;;29.70;30.00;;;;;;5006764;28;20108;-68
2022/05/10 09:21:22;;;;;;;7.07;2.50;;;30.20;29.70;;;;;;5004812;28;20026;-68
2022/05/10 09:24:18;;;;;;;8.05;2.95;;;31.30;30.20;;;;;;5019012;28;20025;-68
2022/05/10 09:26:46;;;;;;;11.02;2.78;;;31.90;31.40;;;;;;5003192;28;21577;-68
2022/05/10 09:29:39;;;;;;;6.93;2.50;;;30.60;29.80;;;;;;5009454;28;20439;-68
2022/05/10 09:35:23;;;;;;;6.30;2.40;;;30.50;27.30;;;;;;5003522;28;20056;-69
2022/05/10 09:37:50;;;;;;;12.52;2.95;;;30.80;27.50;;;;;;5012204;28;20172;-68
2022/05/10 09:40:35;;;;;;;7.25;2.88;;;31.10;27.40;;;;;;5012964;28;20033;-68
2022/05/10 09:43:18;;;;;;;7.68;2.70;;;31.50;27.30;;;;;;5008360;28;20141;-68
2022/05/10 09:45:45;;;;;;;10.98;3.20;;;30.10;27.20;;;;;;5009365;28;20033;-69
2022/05/10 09:48:17;;;;;;;13.15;3.10;;;32.40;27.00;;;;;;5006261;28;20761;-68
2022/05/10 09:50:52;;;;;;;7.50;2.80;;;31.40;28.80;;;;;;5006151;28;20095;-69
2022/05/10 09:53:20;;;;;;;5.22;2.70;;;32.10;26.70;;;;;;5009798;28;20469;-69
2022/05/10 09:56:24;;;;;;;8.70;2.83;;;32.60;25.20;;;;;;5014654;28;20065;-69
2022/05/10 09:58:58;;;;;;;7.80;2.15;;;34.00;25.40;;;;;;4985144;28;20567;-69
2022/05/10 10:01:44;;;;;;;8.32;2.30;;;34.50;24.90;;;;;;4986315;28;20058;-69
2022/05/10 10:04:26;;;;;;;29.65;4.72;;;33.60;24.00;;;;;;4985292;28;20127;-68
2022/05/10 10:07:05;;;;;;;4.60;2.35;;;33.80;23.90;;;;;;4986173;28;20130;-69
2022/05/10 10:09:34;;;;;;;9.52;2.40;;;32.50;26.80;;;;;;4989554;28;20423;-68
2022/05/10 10:12:01;;;;;;;7.18;2.22;;;34.30;25.50;;;;;;4983915;28;20040;-68
2022/05/10 10:14:53;;;;;;;6.55;2.50;;;34.40;25.70;;;;;;4984550;28;20045;-68
2022/05/10 10:17:28;;;;;;;20.67;3.55;;;34.40;24.00;;;;;;4981436;28;20039;-68
2022/05/10 10:20:16;;;;;;;7.78;2.20;;;35.10;25.00;;;;;;4983053;28;20072;-69
2022/05/10 10:22:51;;;;;;;6.32;2.20;;;35.00;24.90;;;;;;4982094;28;20042;-69
2022/05/10 10:25:28;;;;;;;22.52;3.88;;;34.90;23.30;;;;;;4986347;28;20101;-68
2022/05/10 10:28:05;;;;;;;12.38;2.40;;;35.20;23.20;;;;;;4980759;28;20041;-69
2022/05/10 10:30:37;;;;;;;6.47;2.30;;;35.40;21.90;;;;;;5003318;28;20050;-69
2022/05/10 10:33:06;;;;;;;10.73;2.50;;;34.50;22.90;;;;;;5012884;28;20060;-68
2022/05/10 10:35:35;;;;;;;33.37;4.77;;;35.30;21.90;;;;;;5016308;28;20029;-69
2022/05/10 10:38:11;;;;;;;33.47;3.92;;;35.40;22.20;;;;;;5025909;28;20037;-69
2022/05/10 10:40:43;;;;;;;5.72;2.45;;;35.50;22.20;;;;;;5015625;28;20045;-69
2022/05/10 10:43:29;;;;;;;6.88;2.13;;;35.70;21.80;;;;;;5023805;28;20496;-68
2022/05/10 10:46:01;;;;;;;13.23;2.75;;;35.80;22.00;;;;;;5015376;28;20057;-69
2022/05/10 10:48:27;;;;;;;5.47;2.13;;;36.00;22.20;;;;;;5015410;28;20033;-69
2022/05/10 10:50:53;;;;;;;6.18;2.15;;;36.30;22.00;;;;;;5009717;28;20062;-69
2022/05/10 10:53:22;;;;;;;19.33;2.90;;;36.50;21.80;;;;;;5010733;28;20037;-69
2022/05/10 10:56:02;;;;;;;9.23;1.98;;;37.20;21.60;;;;;;5010520;28;20030;-68
2022/05/10 10:58:52;;;;;;;6.22;1.90;;;37.30;20.40;;;;;;5014308;28;20060;-68
2022/05/10 11:01:47;;;;;;;14.05;2.38;;;35.90;21.50;;;;;;5010959;28;20030;-69
2022/05/10 11:04:55;;;;;;;7.78;2.28;;;37.30;22.10;;;;;;5010050;28;20129;-68
2022/05/10 11:07:45;;;;;;;9.38;2.00;;;37.80;20.50;;;;;;5008550;28;20038;-68
2022/05/10 11:10:23;;;;;;;11.20;2.10;;;37.90;19.70;;;;;;5010102;28;20034;-69
2022/05/10 11:12:52;;;;;;;10.52;2.40;;;38.00;19.50;;;;;;5015379;28;20037;-69
2022/05/10 11:15:33;;;;;;;6.20;2.00;;;37.60;20.40;;;;;;5011144;28;21851;-69
2022/05/10 11:18:02;;;;;;;4.60;1.88;;;38.50;19.10;;;;;;5010628;28;20022;-69
2022/05/10 11:20:52;;;;;;;7.50;2.00;;;38.80;18.60;;;;;;5011052;28;20488;-69
2022/05/10 11:23:52;;;;;;;16.90;2.92;;;37.40;17.60;;;;;;5005024;28;20034;-69
2022/05/10 11:27:00;;;;;;;5.50;2.00;;;38.90;19.70;;;;;;5009907;28;20041;-69
2022/05/10 11:29:40;;;;;;;25.33;3.60;;;39.70;17.70;;;;;;5006925;28;20128;-69
2022/05/10 11:32:40;;;;;;;5.72;2.03;;;40.50;18.50;;;;;;5010330;28;21133;-68
2022/05/10 11:35:33;;;;;;;10.00;2.30;;;40.60;16.60;;;;;;5010062;28;20048;-69
2022/05/10 11:38:35;;;;;;;8.52;2.15;;;40.90;16.50;;;;;;5013811;28;20122;-69
2022/05/10 11:41:13;;;;;;;21.58;4.15;;;41.30;16.50;;;;;;5019930;28;20030;-69
2022/05/10 11:43:52;;;;;;;24.80;3.20;;;39.70;16.20;;;;;;5014156;28;20068;-68
2022/05/10 11:46:40;;;;;;;7.40;2.00;;;41.90;15.30;;;;;;5011142;28;20048;-68
2022/05/10 11:49:28;;;;;;;7.60;1.90;;;41.80;15.30;;;;;;5015128;28;20050;-68
2022/05/10 11:52:06;;;;;;;7.38;1.70;;;44.70;18.20;;;;;;5013570;28;21274;-68
2022/05/10 11:55:19;;;;;;;7.82;1.80;;;42.00;15.00;;;;;;5011713;28;20049;-69
2022/05/10 11:57:45;;;;;;;9.93;2.40;;;42.40;14.90;;;;;;4991833;28;20043;-69
2022/05/10 12:00:32;;;;;;;9.88;2.00;;;42.80;15.10;;;;;;4988917;28;20023;-68
2022/05/10 12:02:58;;;;;;;5.72;1.60;;;43.20;14.80;;;;;;4991476;28;20042;-68
2022/05/10 12:05:30;;;;;;;6.85;1.75;;;43.70;14.50;;;;;;4983358;28;20601;-68
2022/05/10 12:08:19;;;;;;;50.22;3.22;;;44.10;14.20;;;;;;4989605;28;20592;-68
2022/05/10 12:10:45;;;;;;;;;;;44.40;13.70;;;;;;4989211;28;20038;-69
2022/05/10 12:22:10;;;;;;;8.30;1.63;;;42.40;12.50;;;;;;4991721;28;20057;-68
2022/05/10 12:24:46;;;;;;;7.32;1.80;;;44.90;13.90;;;;;;4986391;28;20046;-68
2022/05/10 12:27:12;;;;;;;6.55;1.52;;;45.20;13.90;;;;;;4989388;28;20065;-68
2022/05/10 12:29:38;;;;;;;5.90;1.60;;;42.70;13.40;;;;;;4989104;28;20061;-68
2022/05/10 12:32:08;;;;;;;8.32;1.58;;;45.70;13.40;;;;;;4987736;28;20086;-68
2022/05/10 12:34:37;;;;;;;28.75;3.80;;;45.90;12.70;;;;;;4994344;28;20074;-68
2022/05/10 12:37:33;;;;;;;8.27;1.60;;;43.70;11.60;;;;;;4991265;28;20037;-68
2022/05/10 12:40:11;;;;;;;8.98;1.67;;;46.00;12.80;;;;;;4992910;28;20504;-69
2022/05/10 12:42:49;;;;;;;6.45;1.40;;;46.10;12.30;;;;;;4994541;28;20715;-68
2022/05/10 12:45:42;;;;;;;11.82;2.58;;;45.10;12.30;;;;;;4996221;28;20038;-68
2022/05/10 12:48:47;;;;;;;9.93;2.10;;;46.60;13.40;;;;;;4981999;28;20045;-67
2022/05/10 12:51:40;;;;;;;15.68;2.25;;;46.00;13.30;;;;;;4990532;28;20070;-68
2022/05/10 12:54:14;;;;;;;7.40;1.50;;;45.30;14.00;;;;;;4990134;28;20029;-68
2022/05/10 12:56:42;;;;;;;4.65;1.20;;;46.30;13.10;;;;;;4988719;28;20612;-67
2022/05/10 12:59:26;;;;;;;3.90;1.23;;;45.90;12.60;;;;;;4980054;28;20031;-67
2022/05/10 13:01:54;;;;;;;9.82;1.42;;;47.00;13.60;;;;;;4989919;28;20030;-68
2022/05/10 13:04:23;;;;;;;6.05;1.23;;;46.10;12.90;;;;;;4993060;28;20073;-67
2022/05/10 13:07:26;;;;;;;8.52;1.70;;;46.90;13.30;;;;;;4990273;28;20026;-67
2022/05/10 13:10:10;;;;;;;6.20;1.50;;;46.00;11.80;;;;;;4995288;28;20058;-68
2022/05/10 13:12:43;;;;;;;8.15;1.48;;;45.90;11.70;;;;;;4984324;28;20033;-67
2022/05/10 13:15:16;;;;;;;6.18;1.20;;;46.20;14.10;;;;;;4985087;28;20138;-67
2022/05/10 13:17:45;;;;;;;11.52;1.58;;;45.30;11.50;;;;;;4985654;28;20031;-67
2022/05/10 13:20:14;;;;;;;7.25;1.50;;;45.30;14.80;;;;;;4985316;28;20041;-67
2022/05/10 13:22:59;;;;;;;18.88;1.42;;;45.20;14.00;;;;;;4990163;28;20038;-67
2022/05/10 13:25:28;;;;;;;4.65;1.00;;;44.90;14.70;;;;;;4991929;28;20042;-67
2022/05/10 13:28:11;;;;;;;5.72;1.40;;;44.30;13.10;;;;;;4984688;28;20031;-68
2022/05/10 13:30:39;;;;;;;8.35;1.30;;;43.70;13.50;;;;;;4972881;28;20039;-67
2022/05/10 13:33:09;;;;;;;14.82;1.50;;;43.10;13.70;;;;;;4972395;28;20037;-67
2022/05/10 13:35:36;;;;;;;4.35;1.10;;;43.40;14.10;;;;;;4972840;28;20038;-67
2022/05/10 13:38:13;;;;;;;8.05;1.35;;;43.20;13.90;;;;;;4980772;28;20184;-68
2022/05/10 13:40:41;;;;;;;7.13;1.38;;;41.90;14.40;;;;;;4969868;28;20048;-67
2022/05/10 13:43:16;;;;;;;6.22;1.40;;;41.90;15.10;;;;;;4975128;28;20035;-67